Pierre Regional Airport Pierre US
ICAO: KPIR
IATA: PIR
Category: Medium
Scheduled Services: Yes

Elevation: 1744 ft
TransAlt. 18000 ft.

Airport Communications:
ASOS:119.025
MINNEAPOLIS CNTR:125.1
CTAF:122.7
HURON RDO:122.2
UNICOM:122.95

KPIR Zoom In..

Runways:

(A) RW 07 length 6881 ft width 150 ft
---- / hdg 69

(B) RW 13 length 6900 ft width 100 ft
---- / hdg 133

(C) RW 25 length 6881 ft width 150 ft
---- / hdg 249

(D) RW 31 length 6900 ft width 100 ft
ILS 111.90 / hdg 313

Location; KPIR
Day. 10 / Time. 07.53 Zulu
* Altimeter: 30.11
* Temperature: -04° c. -24.8°f.
* Wind from: 150° Speed 07 kn.
Dewpoint: -10° c.
Visibility: 10 Statute Miles.
Clouds: Clear (automated report).

KPIR 100753Z AUTO 15007KT 10SM CLR M04/M10 A3011 RMK AO2 SLP216 T10441100


Wind From 150°
Speed 07 kn.

 
 
jpsmedia worldairports.se 2020   terms of use